Penrith, New South Wales

2:17 AM AEST on July 06, 2015 (GMT +1000)
Emu Heights | | Change Station
CLOSE
Current Station
Personal Weather Station
Location: Emu Heights, NEW SOUTH WALES
Elevation: 82 ft
Nearby Weather Stations

Elev 82 ft 33.74 °S, 150.65 °E | Updated 10 seconds ago

Scattered Clouds
Scattered Clouds
33.1 °F
Feels Like 33 °F
N
0.3
Wind Variable Wind from NNW
Gusts 0.7 mph

Today
High -- | Low -- °F
--% Chance of Precip.
Yesterday
High -- | Low -- °F
Precip. -- in
7:02 AM 5:01 PM
Waning Gibbous, 84% visible
Pressure 30.04 in
Visibility 3.1 miles
Clouds Scattered Clouds 100 ft
Windchill 33 °F
Dew Point 33 °F
Humidity 99%
Rainfall 0.00 in
Snow Depth Not available.
UV 0 out of 12
Pollen Not available.
Air Quality Not available.
Flu Activity Not available.
METAR YSRI 051600Z AUTO 17001KT 5000 // SCT001 01/00 Q1017 RMK AUTO OBSCURATION CODES REMOVED

More Conditions Fewer Conditions

Pressure 30.04 in
Visibility 3.1 miles
Clouds Scattered Clouds 100 ft
Windchill 33 °F
Dew Point 33 °F
Humidity 99%
Rainfall 0.00 in
Snow Depth Not available.
UV 0 out of 12
Pollen Not available.
Air Quality Not available.
Flu Activity Not available.
METAR YSRI 051600Z AUTO 17001KT 5000 // SCT001 01/00 Q1017 RMK AUTO OBSCURATION CODES REMOVED

More Conditions Fewer Conditions

10-Day Weather Forecast

×

Almanac

Astronomy

Jul. 06, 2015 Rise Set
Actual Time
Civil Twilight
Nautical Twilight
Astronomical Twilight
Moon
Length of Visible Light
Length of Day
Tomorrow will be .
, % of the Moon is Illuminated

Today's Extremes

Country Highs Country Lows

Community

WunderPhotos

Upload Photos

1,835,302 photos uploaded!

WunderBlogs® & News

Nearby

Air Quality

  Air Quality AQ Index Pollutant
Not available.

Snow Depth

Station Depth Elevation

Earthquake Activity

City Distance Mag. Time & Date
Minimum magnitude displayed is 2.5.

Coastal Water Temperatures

Place Temperature

Stations

Nearby Weather Stations

Station Location Temp. Windchill Dew Point Humidity Wind Precip. Elev Updated Type